sensor_id;sensor_type;location;lat;lon;timestamp;P1;durP1;ratioP1;P2;durP2;ratioP2
4889;SDS011;2459;42.268;23.112;2022-07-23T00:01:17;12.10;;;5.67;;
4889;SDS011;2459;42.268;23.112;2022-07-23T00:03:46;7.73;;;5.70;;
4889;SDS011;2459;42.268;23.112;2022-07-23T00:06:12;14.70;;;6.30;;
4889;SDS011;2459;42.268;23.112;2022-07-23T00:08:39;8.80;;;5.10;;
4889;SDS011;2459;42.268;23.112;2022-07-23T00:11:06;6.67;;;5.23;;
4889;SDS011;2459;42.268;23.112;2022-07-23T00:13:33;11.80;;;6.07;;
4889;SDS011;2459;42.268;23.112;2022-07-23T00:15:59;10.27;;;6.13;;
4889;SDS011;2459;42.268;23.112;2022-07-23T00:18:26;12.33;;;5.47;;
4889;SDS011;2459;42.268;23.112;2022-07-23T00:20:55;13.20;;;6.77;;
4889;SDS011;2459;42.268;23.112;2022-07-23T00:23:22;16.73;;;6.07;;
4889;SDS011;2459;42.268;23.112;2022-07-23T00:25:50;11.27;;;5.57;;
4889;SDS011;2459;42.268;23.112;2022-07-23T00:28:16;13.50;;;5.67;;
4889;SDS011;2459;42.268;23.112;2022-07-23T00:30:44;11.80;;;5.70;;
4889;SDS011;2459;42.268;23.112;2022-07-23T00:33:11;8.90;;;5.90;;
4889;SDS011;2459;42.268;23.112;2022-07-23T00:35:38;7.30;;;5.53;;
4889;SDS011;2459;42.268;23.112;2022-07-23T00:38:08;17.13;;;6.80;;
4889;SDS011;2459;42.268;23.112;2022-07-23T00:40:36;13.83;;;6.20;;
4889;SDS011;2459;42.268;23.112;2022-07-23T00:43:03;13.53;;;6.43;;
4889;SDS011;2459;42.268;23.112;2022-07-23T00:45:30;9.67;;;6.27;;
4889;SDS011;2459;42.268;23.112;2022-07-23T00:47:57;12.23;;;6.10;;
4889;SDS011;2459;42.268;23.112;2022-07-23T00:50:24;9.00;;;6.43;;
4889;SDS011;2459;42.268;23.112;2022-07-23T00:52:51;9.47;;;5.67;;
4889;SDS011;2459;42.268;23.112;2022-07-23T00:55:22;14.30;;;6.17;;
4889;SDS011;2459;42.268;23.112;2022-07-23T00:57:49;11.60;;;6.50;;
4889;SDS011;2459;42.268;23.112;2022-07-23T01:00:17;10.90;;;6.00;;
4889;SDS011;2459;42.268;23.112;2022-07-23T01:02:44;13.73;;;6.67;;
4889;SDS011;2459;42.268;23.112;2022-07-23T01:05:11;18.83;;;5.37;;
4889;SDS011;2459;42.268;23.112;2022-07-23T01:07:38;11.87;;;5.70;;
4889;SDS011;2459;42.268;23.112;2022-07-23T01:10:05;8.57;;;6.60;;
4889;SDS011;2459;42.268;23.112;2022-07-23T01:12:55;9.50;;;6.40;;
4889;SDS011;2459;42.268;23.112;2022-07-23T01:15:21;18.17;;;6.53;;
4889;SDS011;2459;42.268;23.112;2022-07-23T01:17:49;13.93;;;6.63;;
4889;SDS011;2459;42.268;23.112;2022-07-23T01:20:16;12.87;;;5.93;;
4889;SDS011;2459;42.268;23.112;2022-07-23T01:22:44;13.20;;;5.53;;
4889;SDS011;2459;42.268;23.112;2022-07-23T01:25:11;14.50;;;6.63;;
4889;SDS011;2459;42.268;23.112;2022-07-23T01:27:38;9.27;;;5.53;;
4889;SDS011;2459;42.268;23.112;2022-07-23T01:30:05;19.87;;;6.40;;
4889;SDS011;2459;42.268;23.112;2022-07-23T01:32:33;6.80;;;6.10;;
4889;SDS011;2459;42.268;23.112;2022-07-23T01:34:59;20.80;;;6.27;;
4889;SDS011;2459;42.268;23.112;2022-07-23T01:37:26;15.47;;;6.57;;
4889;SDS011;2459;42.268;23.112;2022-07-23T01:39:54;18.20;;;6.20;;
4889;SDS011;2459;42.268;23.112;2022-07-23T01:42:21;7.97;;;5.77;;
4889;SDS011;2459;42.268;23.112;2022-07-23T01:44:48;9.97;;;6.20;;
4889;SDS011;2459;42.268;23.112;2022-07-23T01:47:15;16.97;;;6.07;;
4889;SDS011;2459;42.268;23.112;2022-07-23T01:49:42;12.03;;;6.70;;
4889;SDS011;2459;42.268;23.112;2022-07-23T01:52:09;13.10;;;6.47;;
4889;SDS011;2459;42.268;23.112;2022-07-23T01:54:36;8.73;;;6.43;;
4889;SDS011;2459;42.268;23.112;2022-07-23T01:57:06;14.40;;;6.80;;
4889;SDS011;2459;42.268;23.112;2022-07-23T01:59:33;12.07;;;6.10;;
4889;SDS011;2459;42.268;23.112;2022-07-23T02:02:00;10.60;;;5.77;;
4889;SDS011;2459;42.268;23.112;2022-07-23T02:04:28;12.57;;;6.07;;
4889;SDS011;2459;42.268;23.112;2022-07-23T02:06:55;9.53;;;6.03;;
4889;SDS011;2459;42.268;23.112;2022-07-23T02:09:22;15.33;;;6.20;;
4889;SDS011;2459;42.268;23.112;2022-07-23T02:11:48;12.07;;;5.80;;
4889;SDS011;2459;42.268;23.112;2022-07-23T02:14:16;8.93;;;5.70;;
4889;SDS011;2459;42.268;23.112;2022-07-23T02:16:43;13.83;;;6.53;;
4889;SDS011;2459;42.268;23.112;2022-07-23T02:19:10;13.97;;;6.60;;
4889;SDS011;2459;42.268;23.112;2022-07-23T02:21:37;11.00;;;6.57;;
4889;SDS011;2459;42.268;23.112;2022-07-23T02:24:04;10.90;;;7.23;;
4889;SDS011;2459;42.268;23.112;2022-07-23T02:26:31;35.93;;;7.90;;
4889;SDS011;2459;42.268;23.112;2022-07-23T02:28:59;19.33;;;6.90;;
4889;SDS011;2459;42.268;23.112;2022-07-23T02:31:28;20.30;;;6.87;;
4889;SDS011;2459;42.268;23.112;2022-07-23T02:33:55;8.20;;;6.13;;
4889;SDS011;2459;42.268;23.112;2022-07-23T02:36:21;14.10;;;6.40;;
4889;SDS011;2459;42.268;23.112;2022-07-23T02:38:48;15.43;;;6.60;;
4889;SDS011;2459;42.268;23.112;2022-07-23T02:41:15;13.70;;;6.67;;
4889;SDS011;2459;42.268;23.112;2022-07-23T02:43:42;13.23;;;6.30;;
4889;SDS011;2459;42.268;23.112;2022-07-23T02:46:09;16.83;;;7.07;;
4889;SDS011;2459;42.268;23.112;2022-07-23T02:48:37;12.20;;;6.33;;
4889;SDS011;2459;42.268;23.112;2022-07-23T02:51:04;11.63;;;6.90;;
4889;SDS011;2459;42.268;23.112;2022-07-23T02:53:30;20.10;;;7.10;;
4889;SDS011;2459;42.268;23.112;2022-07-23T02:55:57;11.20;;;5.60;;
4889;SDS011;2459;42.268;23.112;2022-07-23T02:58:24;11.90;;;7.20;;
4889;SDS011;2459;42.268;23.112;2022-07-23T03:00:51;15.13;;;6.57;;
4889;SDS011;2459;42.268;23.112;2022-07-23T03:03:18;10.73;;;6.03;;
4889;SDS011;2459;42.268;23.112;2022-07-23T03:05:46;13.60;;;7.00;;
4889;SDS011;2459;42.268;23.112;2022-07-23T03:08:13;14.63;;;6.97;;
4889;SDS011;2459;42.268;23.112;2022-07-23T03:10:40;12.37;;;7.33;;
4889;SDS011;2459;42.268;23.112;2022-07-23T03:13:07;14.27;;;6.97;;
4889;SDS011;2459;42.268;23.112;2022-07-23T03:15:33;14.43;;;6.17;;
4889;SDS011;2459;42.268;23.112;2022-07-23T03:18:00;17.53;;;7.27;;
4889;SDS011;2459;42.268;23.112;2022-07-23T03:20:27;12.13;;;7.40;;
4889;SDS011;2459;42.268;23.112;2022-07-23T03:22:55;14.83;;;7.40;;
4889;SDS011;2459;42.268;23.112;2022-07-23T03:25:22;12.33;;;6.80;;
4889;SDS011;2459;42.268;23.112;2022-07-23T03:27:49;10.33;;;6.80;;
4889;SDS011;2459;42.268;23.112;2022-07-23T03:30:15;24.77;;;7.40;;
4889;SDS011;2459;42.268;23.112;2022-07-23T03:32:42;14.00;;;7.17;;
4889;SDS011;2459;42.268;23.112;2022-07-23T03:35:09;12.50;;;6.90;;
4889;SDS011;2459;42.268;23.112;2022-07-23T03:37:36;19.67;;;7.53;;
4889;SDS011;2459;42.268;23.112;2022-07-23T03:40:05;16.03;;;8.53;;
4889;SDS011;2459;42.268;23.112;2022-07-23T03:42:32;13.70;;;7.60;;
4889;SDS011;2459;42.268;23.112;2022-07-23T03:44:59;15.47;;;6.90;;
4889;SDS011;2459;42.268;23.112;2022-07-23T03:47:26;10.70;;;7.40;;
4889;SDS011;2459;42.268;23.112;2022-07-23T03:49:53;16.70;;;7.73;;
4889;SDS011;2459;42.268;23.112;2022-07-23T03:52:20;12.00;;;6.93;;
4889;SDS011;2459;42.268;23.112;2022-07-23T03:54:46;21.13;;;7.40;;
4889;SDS011;2459;42.268;23.112;2022-07-23T03:57:15;19.20;;;8.00;;
4889;SDS011;2459;42.268;23.112;2022-07-23T03:59:42;16.40;;;7.20;;
4889;SDS011;2459;42.268;23.112;2022-07-23T04:02:08;18.57;;;7.30;;
4889;SDS011;2459;42.268;23.112;2022-07-23T04:04:35;14.33;;;7.90;;
4889;SDS011;2459;42.268;23.112;2022-07-23T04:07:02;21.20;;;7.37;;
4889;SDS011;2459;42.268;23.112;2022-07-23T04:09:28;28.87;;;8.13;;
4889;SDS011;2459;42.268;23.112;2022-07-23T04:11:55;18.23;;;7.20;;
4889;SDS011;2459;42.268;23.112;2022-07-23T04:14:23;13.70;;;7.90;;
4889;SDS011;2459;42.268;23.112;2022-07-23T04:16:50;20.47;;;7.30;;
4889;SDS011;2459;42.268;23.112;2022-07-23T04:19:17;14.90;;;7.87;;
4889;SDS011;2459;42.268;23.112;2022-07-23T04:21:43;15.30;;;7.03;;
4889;SDS011;2459;42.268;23.112;2022-07-23T04:24:10;25.03;;;8.07;;
4889;SDS011;2459;42.268;23.112;2022-07-23T04:26:37;18.97;;;7.70;;
4889;SDS011;2459;42.268;23.112;2022-07-23T04:29:04;23.63;;;8.63;;
4889;SDS011;2459;42.268;23.112;2022-07-23T04:31:32;13.57;;;7.00;;
4889;SDS011;2459;42.268;23.112;2022-07-23T04:33:58;22.30;;;7.10;;
4889;SDS011;2459;42.268;23.112;2022-07-23T04:36:25;18.53;;;7.43;;
4889;SDS011;2459;42.268;23.112;2022-07-23T04:38:52;18.40;;;7.33;;
4889;SDS011;2459;42.268;23.112;2022-07-23T04:41:19;24.60;;;7.23;;
4889;SDS011;2459;42.268;23.112;2022-07-23T04:43:46;12.00;;;6.67;;
4889;SDS011;2459;42.268;23.112;2022-07-23T04:46:13;26.63;;;6.07;;
4889;SDS011;2459;42.268;23.112;2022-07-23T04:48:41;16.67;;;5.70;;
4889;SDS011;2459;42.268;23.112;2022-07-23T04:51:08;13.80;;;7.00;;
4889;SDS011;2459;42.268;23.112;2022-07-23T04:53:36;17.43;;;7.13;;
4889;SDS011;2459;42.268;23.112;2022-07-23T04:56:03;8.90;;;6.40;;
4889;SDS011;2459;42.268;23.112;2022-07-23T04:58:30;14.13;;;7.80;;
4889;SDS011;2459;42.268;23.112;2022-07-23T05:00:58;8.10;;;6.30;;
4889;SDS011;2459;42.268;23.112;2022-07-23T05:03:24;16.50;;;6.50;;
4889;SDS011;2459;42.268;23.112;2022-07-23T05:05:52;13.23;;;6.37;;
4889;SDS011;2459;42.268;23.112;2022-07-23T05:08:19;18.70;;;7.13;;
4889;SDS011;2459;42.268;23.112;2022-07-23T05:10:46;16.73;;;6.43;;
4889;SDS011;2459;42.268;23.112;2022-07-23T05:13:14;15.80;;;6.60;;
4889;SDS011;2459;42.268;23.112;2022-07-23T05:15:41;10.33;;;6.60;;
4889;SDS011;2459;42.268;23.112;2022-07-23T05:18:08;14.10;;;6.67;;
4889;SDS011;2459;42.268;23.112;2022-07-23T05:20:34;10.77;;;7.23;;
4889;SDS011;2459;42.268;23.112;2022-07-23T05:23:03;21.00;;;7.63;;
4889;SDS011;2459;42.268;23.112;2022-07-23T05:25:30;20.80;;;7.57;;
4889;SDS011;2459;42.268;23.112;2022-07-23T05:27:56;14.43;;;6.53;;
4889;SDS011;2459;42.268;23.112;2022-07-23T05:30:23;21.80;;;6.30;;
4889;SDS011;2459;42.268;23.112;2022-07-23T05:32:50;16.73;;;6.90;;
4889;SDS011;2459;42.268;23.112;2022-07-23T05:35:17;16.13;;;7.37;;
4889;SDS011;2459;42.268;23.112;2022-07-23T05:37:43;30.27;;;6.77;;
4889;SDS011;2459;42.268;23.112;2022-07-23T05:40:12;15.50;;;6.47;;
4889;SDS011;2459;42.268;23.112;2022-07-23T05:42:40;9.70;;;6.30;;
4889;SDS011;2459;42.268;23.112;2022-07-23T05:45:07;10.53;;;5.23;;
4889;SDS011;2459;42.268;23.112;2022-07-23T05:47:41;22.17;;;7.13;;
4889;SDS011;2459;42.268;23.112;2022-07-23T05:50:09;15.60;;;6.63;;
4889;SDS011;2459;42.268;23.112;2022-07-23T05:52:36;11.10;;;6.07;;
4889;SDS011;2459;42.268;23.112;2022-07-23T05:55:03;14.25;;;6.90;;
4889;SDS011;2459;42.268;23.112;2022-07-23T05:57:32;16.13;;;6.67;;
4889;SDS011;2459;42.268;23.112;2022-07-23T05:59:59;22.60;;;6.63;;
4889;SDS011;2459;42.268;23.112;2022-07-23T06:02:26;12.68;;;6.35;;
4889;SDS011;2459;42.268;23.112;2022-07-23T06:04:53;10.63;;;6.10;;
4889;SDS011;2459;42.268;23.112;2022-07-23T06:07:19;15.10;;;7.25;;
4889;SDS011;2459;42.268;23.112;2022-07-23T06:09:46;16.58;;;5.90;;
4889;SDS011;2459;42.268;23.112;2022-07-23T06:12:14;14.98;;;6.53;;
4889;SDS011;2459;42.268;23.112;2022-07-23T06:14:42;11.68;;;6.43;;
4889;SDS011;2459;42.268;23.112;2022-07-23T06:17:10;13.55;;;5.28;;
4889;SDS011;2459;42.268;23.112;2022-07-23T06:19:36;12.60;;;6.78;;
4889;SDS011;2459;42.268;23.112;2022-07-23T06:22:13;6.53;;;5.50;;
4889;SDS011;2459;42.268;23.112;2022-07-23T06:24:43;13.57;;;6.00;;
4889;SDS011;2459;42.268;23.112;2022-07-23T06:27:22;12.73;;;5.57;;
4889;SDS011;2459;42.268;23.112;2022-07-23T06:30:08;12.15;;;5.82;;
4889;SDS011;2459;42.268;23.112;2022-07-23T06:32:49;20.73;;;6.05;;
4889;SDS011;2459;42.268;23.112;2022-07-23T06:35:25;15.43;;;6.05;;
4889;SDS011;2459;42.268;23.112;2022-07-23T06:38:01;11.68;;;5.60;;
4889;SDS011;2459;42.268;23.112;2022-07-23T06:40:38;12.68;;;5.30;;
4889;SDS011;2459;42.268;23.112;2022-07-23T06:43:15;11.73;;;5.88;;
4889;SDS011;2459;42.268;23.112;2022-07-23T06:45:44;15.88;;;5.07;;
4889;SDS011;2459;42.268;23.112;2022-07-23T06:48:10;14.90;;;6.20;;
4889;SDS011;2459;42.268;23.112;2022-07-23T06:50:37;15.13;;;5.82;;
4889;SDS011;2459;42.268;23.112;2022-07-23T06:53:04;17.63;;;6.03;;
4889;SDS011;2459;42.268;23.112;2022-07-23T06:55:40;16.83;;;6.00;;
4889;SDS011;2459;42.268;23.112;2022-07-23T06:58:29;14.77;;;6.05;;
4889;SDS011;2459;42.268;23.112;2022-07-23T07:01:28;23.17;;;7.40;;
4889;SDS011;2459;42.268;23.112;2022-07-23T07:03:59;43.38;;;8.70;;
4889;SDS011;2459;42.268;23.112;2022-07-23T07:06:39;32.42;;;6.97;;
4889;SDS011;2459;42.268;23.112;2022-07-23T07:09:07;27.95;;;8.23;;
4889;SDS011;2459;42.268;23.112;2022-07-23T07:11:34;21.35;;;6.93;;
4889;SDS011;2459;42.268;23.112;2022-07-23T07:14:06;29.17;;;6.45;;
4889;SDS011;2459;42.268;23.112;2022-07-23T07:16:55;26.70;;;7.40;;
4889;SDS011;2459;42.268;23.112;2022-07-23T07:19:49;31.73;;;8.13;;
4889;SDS011;2459;42.268;23.112;2022-07-23T07:22:29;39.22;;;7.80;;
4889;SDS011;2459;42.268;23.112;2022-07-23T07:25:12;38.30;;;7.53;;
4889;SDS011;2459;42.268;23.112;2022-07-23T07:28:02;27.02;;;7.28;;
4889;SDS011;2459;42.268;23.112;2022-07-23T07:30:49;23.75;;;7.57;;
4889;SDS011;2459;42.268;23.112;2022-07-23T07:33:34;25.45;;;6.45;;
4889;SDS011;2459;42.268;23.112;2022-07-23T07:36:08;17.60;;;6.50;;
4889;SDS011;2459;42.268;23.112;2022-07-23T07:38:46;36.33;;;8.13;;
4889;SDS011;2459;42.268;23.112;2022-07-23T07:41:20;30.02;;;7.28;;
4889;SDS011;2459;42.268;23.112;2022-07-23T07:44:15;36.55;;;7.07;;
4889;SDS011;2459;42.268;23.112;2022-07-23T07:46:45;23.60;;;6.43;;
4889;SDS011;2459;42.268;23.112;2022-07-23T07:49:32;22.45;;;6.40;;
4889;SDS011;2459;42.268;23.112;2022-07-23T07:52:07;22.77;;;5.90;;
4889;SDS011;2459;42.268;23.112;2022-07-23T07:54:59;13.52;;;5.38;;
4889;SDS011;2459;42.268;23.112;2022-07-23T07:57:59;53.58;;;6.50;;
4889;SDS011;2459;42.268;23.112;2022-07-23T08:00:32;16.63;;;5.45;;
4889;SDS011;2459;42.268;23.112;2022-07-23T08:02:59;32.70;;;6.22;;
4889;SDS011;2459;42.268;23.112;2022-07-23T08:05:27;17.45;;;6.43;;
4889;SDS011;2459;42.268;23.112;2022-07-23T08:07:55;19.50;;;5.20;;
4889;SDS011;2459;42.268;23.112;2022-07-23T08:10:23;27.25;;;5.78;;
4889;SDS011;2459;42.268;23.112;2022-07-23T08:12:52;13.88;;;6.18;;
4889;SDS011;2459;42.268;23.112;2022-07-23T08:15:20;26.23;;;4.80;;
4889;SDS011;2459;42.268;23.112;2022-07-23T08:17:47;13.75;;;4.93;;
4889;SDS011;2459;42.268;23.112;2022-07-23T08:20:16;17.10;;;5.63;;
4889;SDS011;2459;42.268;23.112;2022-07-23T08:22:49;17.25;;;5.22;;
4889;SDS011;2459;42.268;23.112;2022-07-23T08:25:20;23.67;;;11.15;;
4889;SDS011;2459;42.268;23.112;2022-07-23T08:27:48;13.00;;;5.03;;
4889;SDS011;2459;42.268;23.112;2022-07-23T08:30:18;7.70;;;4.32;;
4889;SDS011;2459;42.268;23.112;2022-07-23T08:32:49;24.00;;;5.10;;
4889;SDS011;2459;42.268;23.112;2022-07-23T08:35:17;18.70;;;5.75;;
4889;SDS011;2459;42.268;23.112;2022-07-23T08:37:44;11.93;;;4.45;;
4889;SDS011;2459;42.268;23.112;2022-07-23T08:40:12;15.98;;;4.18;;
4889;SDS011;2459;42.268;23.112;2022-07-23T08:42:39;12.18;;;4.03;;
4889;SDS011;2459;42.268;23.112;2022-07-23T08:45:07;13.23;;;4.78;;
4889;SDS011;2459;42.268;23.112;2022-07-23T08:47:37;11.13;;;4.45;;
4889;SDS011;2459;42.268;23.112;2022-07-23T08:50:42;8.88;;;4.35;;
4889;SDS011;2459;42.268;23.112;2022-07-23T08:53:20;20.23;;;5.03;;
4889;SDS011;2459;42.268;23.112;2022-07-23T08:55:50;13.77;;;5.10;;
4889;SDS011;2459;42.268;23.112;2022-07-23T08:58:17;10.07;;;4.25;;
4889;SDS011;2459;42.268;23.112;2022-07-23T09:00:44;9.60;;;5.03;;
4889;SDS011;2459;42.268;23.112;2022-07-23T09:03:13;11.50;;;4.53;;
4889;SDS011;2459;42.268;23.112;2022-07-23T09:05:41;19.38;;;5.05;;
4889;SDS011;2459;42.268;23.112;2022-07-23T09:08:10;16.90;;;4.60;;
4889;SDS011;2459;42.268;23.112;2022-07-23T09:10:48;14.38;;;4.05;;
4889;SDS011;2459;42.268;23.112;2022-07-23T09:13:24;13.43;;;4.47;;
4889;SDS011;2459;42.268;23.112;2022-07-23T09:16:04;12.50;;;3.63;;
4889;SDS011;2459;42.268;23.112;2022-07-23T09:18:34;10.02;;;4.85;;
4889;SDS011;2459;42.268;23.112;2022-07-23T09:23:51;14.55;;;4.45;;
4889;SDS011;2459;42.268;23.112;2022-07-23T09:26:22;15.10;;;4.28;;
4889;SDS011;2459;42.268;23.112;2022-07-23T09:28:56;8.07;;;4.72;;
4889;SDS011;2459;42.268;23.112;2022-07-23T09:31:27;15.27;;;4.35;;
4889;SDS011;2459;42.268;23.112;2022-07-23T09:34:11;14.43;;;4.78;;
4889;SDS011;2459;42.268;23.112;2022-07-23T09:36:40;14.18;;;4.63;;
4889;SDS011;2459;42.268;23.112;2022-07-23T09:39:07;6.82;;;4.30;;
4889;SDS011;2459;42.268;23.112;2022-07-23T09:41:36;14.07;;;4.70;;
4889;SDS011;2459;42.268;23.112;2022-07-23T09:44:12;12.88;;;4.30;;
4889;SDS011;2459;42.268;23.112;2022-07-23T09:46:41;12.43;;;4.40;;
4889;SDS011;2459;42.268;23.112;2022-07-23T09:49:15;15.38;;;4.93;;
4889;SDS011;2459;42.268;23.112;2022-07-23T09:51:47;12.20;;;4.30;;
4889;SDS011;2459;42.268;23.112;2022-07-23T09:54:20;14.93;;;4.20;;
4889;SDS011;2459;42.268;23.112;2022-07-23T09:56:50;11.38;;;4.38;;
4889;SDS011;2459;42.268;23.112;2022-07-23T09:59:17;13.25;;;4.57;;
4889;SDS011;2459;42.268;23.112;2022-07-23T10:01:45;11.95;;;4.10;;
4889;SDS011;2459;42.268;23.112;2022-07-23T10:04:11;14.18;;;4.32;;
4889;SDS011;2459;42.268;23.112;2022-07-23T10:06:39;14.57;;;5.03;;
4889;SDS011;2459;42.268;23.112;2022-07-23T10:09:06;9.95;;;4.18;;
4889;SDS011;2459;42.268;23.112;2022-07-23T10:11:33;10.48;;;4.57;;
4889;SDS011;2459;42.268;23.112;2022-07-23T10:14:02;9.43;;;4.50;;
4889;SDS011;2459;42.268;23.112;2022-07-23T10:16:29;10.45;;;4.05;;
4889;SDS011;2459;42.268;23.112;2022-07-23T10:18:56;10.80;;;4.90;;
4889;SDS011;2459;42.268;23.112;2022-07-23T10:21:24;13.50;;;4.40;;
4889;SDS011;2459;42.268;23.112;2022-07-23T10:23:58;17.58;;;4.78;;
4889;SDS011;2459;42.268;23.112;2022-07-23T10:26:33;16.08;;;5.70;;
4889;SDS011;2459;42.268;23.112;2022-07-23T10:29:08;15.48;;;4.75;;
4889;SDS011;2459;42.268;23.112;2022-07-23T10:31:41;17.98;;;5.40;;
4889;SDS011;2459;42.268;23.112;2022-07-23T10:34:17;15.43;;;4.10;;
4889;SDS011;2459;42.268;23.112;2022-07-23T10:36:48;16.40;;;4.53;;
4889;SDS011;2459;42.268;23.112;2022-07-23T10:39:18;17.20;;;5.07;;
4889;SDS011;2459;42.268;23.112;2022-07-23T10:41:46;22.65;;;6.78;;
4889;SDS011;2459;42.268;23.112;2022-07-23T10:44:16;18.05;;;6.55;;
4889;SDS011;2459;42.268;23.112;2022-07-23T10:46:54;19.00;;;5.63;;
4889;SDS011;2459;42.268;23.112;2022-07-23T10:49:35;24.42;;;6.82;;
4889;SDS011;2459;42.268;23.112;2022-07-23T10:52:21;16.67;;;6.80;;
4889;SDS011;2459;42.268;23.112;2022-07-23T10:54:50;23.55;;;5.80;;
4889;SDS011;2459;42.268;23.112;2022-07-23T10:57:18;28.30;;;6.63;;
4889;SDS011;2459;42.268;23.112;2022-07-23T11:02:40;21.92;;;5.63;;
4889;SDS011;2459;42.268;23.112;2022-07-23T11:05:08;19.30;;;6.90;;
4889;SDS011;2459;42.268;23.112;2022-07-23T11:07:36;25.90;;;6.13;;
4889;SDS011;2459;42.268;23.112;2022-07-23T11:10:34;23.90;;;6.57;;
4889;SDS011;2459;42.268;23.112;2022-07-23T11:16:13;37.08;;;6.40;;
4889;SDS011;2459;42.268;23.112;2022-07-23T11:19:07;25.75;;;6.35;;
4889;SDS011;2459;42.268;23.112;2022-07-23T11:21:44;30.05;;;5.90;;
4889;SDS011;2459;42.268;23.112;2022-07-23T11:24:18;22.23;;;6.22;;
4889;SDS011;2459;42.268;23.112;2022-07-23T11:26:50;24.10;;;6.00;;
4889;SDS011;2459;42.268;23.112;2022-07-23T11:32:34;13.80;;;4.13;;
4889;SDS011;2459;42.268;23.112;2022-07-23T11:35:18;15.95;;;4.97;;
4889;SDS011;2459;42.268;23.112;2022-07-23T11:37:46;25.85;;;5.53;;
4889;SDS011;2459;42.268;23.112;2022-07-23T11:40:14;12.35;;;3.72;;
4889;SDS011;2459;42.268;23.112;2022-07-23T11:42:50;11.88;;;4.40;;
4889;SDS011;2459;42.268;23.112;2022-07-23T11:45:18;16.77;;;4.32;;
4889;SDS011;2459;42.268;23.112;2022-07-23T11:47:46;13.00;;;3.85;;
4889;SDS011;2459;42.268;23.112;2022-07-23T11:50:13;15.40;;;4.60;;
4889;SDS011;2459;42.268;23.112;2022-07-23T11:52:40;34.38;;;4.50;;
4889;SDS011;2459;42.268;23.112;2022-07-23T11:55:07;22.27;;;4.45;;
4889;SDS011;2459;42.268;23.112;2022-07-23T11:57:39;26.98;;;5.25;;
4889;SDS011;2459;42.268;23.112;2022-07-23T12:00:07;11.30;;;4.43;;
4889;SDS011;2459;42.268;23.112;2022-07-23T12:02:36;11.02;;;4.78;;
4889;SDS011;2459;42.268;23.112;2022-07-23T12:05:05;15.45;;;3.83;;
4889;SDS011;2459;42.268;23.112;2022-07-23T12:07:35;8.45;;;3.97;;
4889;SDS011;2459;42.268;23.112;2022-07-23T12:10:03;17.80;;;4.22;;
4889;SDS011;2459;42.268;23.112;2022-07-23T12:12:35;18.15;;;4.90;;
4889;SDS011;2459;42.268;23.112;2022-07-23T12:15:04;21.30;;;4.68;;
4889;SDS011;2459;42.268;23.112;2022-07-23T12:17:33;14.05;;;4.28;;
4889;SDS011;2459;42.268;23.112;2022-07-23T12:20:01;17.63;;;5.15;;
4889;SDS011;2459;42.268;23.112;2022-07-23T12:22:34;19.77;;;5.43;;
4889;SDS011;2459;42.268;23.112;2022-07-23T12:25:03;15.23;;;4.68;;
4889;SDS011;2459;42.268;23.112;2022-07-23T12:27:32;13.05;;;4.22;;
4889;SDS011;2459;42.268;23.112;2022-07-23T12:29:58;7.40;;;3.85;;
4889;SDS011;2459;42.268;23.112;2022-07-23T12:32:26;21.15;;;6.05;;
4889;SDS011;2459;42.268;23.112;2022-07-23T12:35:02;13.68;;;5.03;;
4889;SDS011;2459;42.268;23.112;2022-07-23T12:37:31;18.42;;;4.18;;
4889;SDS011;2459;42.268;23.112;2022-07-23T12:40:03;14.75;;;4.07;;
4889;SDS011;2459;42.268;23.112;2022-07-23T12:42:45;18.05;;;5.03;;
4889;SDS011;2459;42.268;23.112;2022-07-23T12:45:13;19.58;;;4.57;;
4889;SDS011;2459;42.268;23.112;2022-07-23T12:50:41;14.90;;;5.18;;
4889;SDS011;2459;42.268;23.112;2022-07-23T12:53:11;22.77;;;4.95;;
4889;SDS011;2459;42.268;23.112;2022-07-23T12:55:41;12.07;;;4.50;;
4889;SDS011;2459;42.268;23.112;2022-07-23T12:58:12;11.70;;;4.32;;
4889;SDS011;2459;42.268;23.112;2022-07-23T13:03:36;25.48;;;5.18;;
4889;SDS011;2459;42.268;23.112;2022-07-23T13:06:06;18.13;;;5.43;;
4889;SDS011;2459;42.268;23.112;2022-07-23T13:08:35;12.85;;;4.60;;
4889;SDS011;2459;42.268;23.112;2022-07-23T13:11:05;16.65;;;3.58;;
4889;SDS011;2459;42.268;23.112;2022-07-23T13:13:32;16.42;;;4.63;;
4889;SDS011;2459;42.268;23.112;2022-07-23T13:16:00;19.30;;;4.32;;
4889;SDS011;2459;42.268;23.112;2022-07-23T13:18:28;9.05;;;4.13;;
4889;SDS011;2459;42.268;23.112;2022-07-23T13:20:56;26.85;;;5.20;;
4889;SDS011;2459;42.268;23.112;2022-07-23T13:23:23;15.25;;;4.72;;
4889;SDS011;2459;42.268;23.112;2022-07-23T13:25:49;14.70;;;5.43;;
4889;SDS011;2459;42.268;23.112;2022-07-23T13:28:18;17.20;;;4.68;;
4889;SDS011;2459;42.268;23.112;2022-07-23T13:30:46;9.75;;;4.97;;
4889;SDS011;2459;42.268;23.112;2022-07-23T13:33:15;10.85;;;4.13;;
4889;SDS011;2459;42.268;23.112;2022-07-23T13:35:42;14.25;;;4.45;;
4889;SDS011;2459;42.268;23.112;2022-07-23T13:38:09;9.90;;;4.22;;
4889;SDS011;2459;42.268;23.112;2022-07-23T13:40:36;14.38;;;5.10;;
4889;SDS011;2459;42.268;23.112;2022-07-23T13:43:05;17.60;;;4.28;;
4889;SDS011;2459;42.268;23.112;2022-07-23T13:45:34;16.25;;;4.68;;
4889;SDS011;2459;42.268;23.112;2022-07-23T13:48:01;19.98;;;4.80;;
4889;SDS011;2459;42.268;23.112;2022-07-23T13:50:28;9.23;;;3.50;;
4889;SDS011;2459;42.268;23.112;2022-07-23T13:52:55;11.80;;;4.43;;
4889;SDS011;2459;42.268;23.112;2022-07-23T13:55:22;16.13;;;3.88;;
4889;SDS011;2459;42.268;23.112;2022-07-23T13:57:49;7.97;;;3.80;;
4889;SDS011;2459;42.268;23.112;2022-07-23T14:00:15;13.77;;;3.95;;
4889;SDS011;2459;42.268;23.112;2022-07-23T14:02:44;17.63;;;4.22;;
4889;SDS011;2459;42.268;23.112;2022-07-23T14:05:11;10.35;;;3.50;;
4889;SDS011;2459;42.268;23.112;2022-07-23T14:07:38;9.82;;;3.95;;
4889;SDS011;2459;42.268;23.112;2022-07-23T14:10:07;22.20;;;5.07;;
4889;SDS011;2459;42.268;23.112;2022-07-23T14:12:34;11.35;;;4.18;;
4889;SDS011;2459;42.268;23.112;2022-07-23T14:15:01;13.38;;;4.40;;
4889;SDS011;2459;42.268;23.112;2022-07-23T14:17:29;19.73;;;5.32;;
4889;SDS011;2459;42.268;23.112;2022-07-23T14:19:58;13.10;;;4.22;;
4889;SDS011;2459;42.268;23.112;2022-07-23T14:22:24;10.02;;;4.60;;
4889;SDS011;2459;42.268;23.112;2022-07-23T14:24:51;16.55;;;5.63;;
4889;SDS011;2459;42.268;23.112;2022-07-23T14:27:18;16.95;;;4.18;;
4889;SDS011;2459;42.268;23.112;2022-07-23T14:29:45;14.30;;;4.88;;
4889;SDS011;2459;42.268;23.112;2022-07-23T14:32:12;10.57;;;4.32;;
4889;SDS011;2459;42.268;23.112;2022-07-23T14:34:38;27.25;;;5.60;;
4889;SDS011;2459;42.268;23.112;2022-07-23T14:37:06;20.08;;;5.20;;
4889;SDS011;2459;42.268;23.112;2022-07-23T14:39:33;16.35;;;5.10;;
4889;SDS011;2459;42.268;23.112;2022-07-23T14:42:00;16.25;;;5.05;;
4889;SDS011;2459;42.268;23.112;2022-07-23T14:44:27;13.70;;;5.10;;
4889;SDS011;2459;42.268;23.112;2022-07-23T14:46:54;13.27;;;4.93;;
4889;SDS011;2459;42.268;23.112;2022-07-23T14:49:20;10.80;;;4.30;;
4889;SDS011;2459;42.268;23.112;2022-07-23T14:51:47;16.80;;;5.25;;
4889;SDS011;2459;42.268;23.112;2022-07-23T14:54:15;21.45;;;5.35;;
4889;SDS011;2459;42.268;23.112;2022-07-23T14:56:42;19.77;;;4.80;;
4889;SDS011;2459;42.268;23.112;2022-07-23T14:59:09;13.23;;;4.97;;
4889;SDS011;2459;42.268;23.112;2022-07-23T15:01:36;16.70;;;3.83;;
4889;SDS011;2459;42.268;23.112;2022-07-23T15:04:03;16.35;;;3.83;;
4889;SDS011;2459;42.268;23.112;2022-07-23T15:06:30;26.65;;;4.75;;
4889;SDS011;2459;42.268;23.112;2022-07-23T15:08:57;14.68;;;4.20;;
4889;SDS011;2459;42.268;23.112;2022-07-23T15:11:26;19.27;;;6.20;;
4889;SDS011;2459;42.268;23.112;2022-07-23T15:13:54;13.20;;;4.38;;
4889;SDS011;2459;42.268;23.112;2022-07-23T15:16:21;8.90;;;4.13;;
4889;SDS011;2459;42.268;23.112;2022-07-23T15:18:48;26.17;;;4.65;;
4889;SDS011;2459;42.268;23.112;2022-07-23T15:21:15;13.43;;;4.30;;